createdAt,value
2022-12-17T00:02:28.483Z,7.70
2022-12-17T00:05:19.524Z,8.37
2022-12-17T00:08:04.791Z,9.23
2022-12-17T00:10:49.930Z,12.90
2022-12-17T00:13:38.117Z,13.03
2022-12-17T00:16:26.293Z,13.60
2022-12-17T00:19:12.077Z,12.23
2022-12-17T00:21:57.254Z,12.73
2022-12-17T00:24:42.904Z,10.93
2022-12-17T00:27:28.088Z,8.27
2022-12-17T00:30:21.872Z,9.10
2022-12-17T00:33:09.735Z,8.20
2022-12-17T00:35:55.252Z,9.23
2022-12-17T00:38:42.364Z,8.93
2022-12-17T00:41:42.093Z,8.43
2022-12-17T00:44:29.305Z,8.53
2022-12-17T00:47:14.460Z,8.87
2022-12-17T00:50:01.047Z,8.00
2022-12-17T00:52:46.179Z,8.73
2022-12-17T00:55:31.830Z,7.17
2022-12-17T00:58:16.930Z,7.47
2022-12-17T01:01:02.394Z,9.93
2022-12-17T01:03:47.706Z,8.97
2022-12-17T01:06:34.103Z,8.73
2022-12-17T01:09:19.768Z,8.13
2022-12-17T01:12:06.507Z,8.97
2022-12-17T01:14:51.648Z,9.30
2022-12-17T01:17:37.436Z,8.63
2022-12-17T01:20:23.565Z,8.23
2022-12-17T01:23:10.088Z,8.90
2022-12-17T01:25:54.473Z,10.20
2022-12-17T01:28:42.726Z,10.07
2022-12-17T01:31:32.961Z,9.63
2022-12-17T01:34:20.540Z,8.70
2022-12-17T01:37:06.246Z,10.77
2022-12-17T01:39:53.256Z,10.43
2022-12-17T01:42:38.397Z,10.17
2022-12-17T01:45:26.070Z,9.37
2022-12-17T01:48:17.346Z,9.20
2022-12-17T01:51:09.324Z,9.27
2022-12-17T01:53:59.869Z,9.70
2022-12-17T01:56:46.859Z,9.30
2022-12-17T01:59:32.979Z,8.80
2022-12-17T02:02:18.700Z,9.80
2022-12-17T02:05:04.263Z,8.47
2022-12-17T02:08:04.682Z,8.83
2022-12-17T02:11:00.041Z,8.33
2022-12-17T02:13:51.037Z,7.87
2022-12-17T02:16:40.667Z,8.57
2022-12-17T02:19:41.799Z,7.83
2022-12-17T02:22:38.634Z,8.37
2022-12-17T02:25:34.681Z,8.57
2022-12-17T02:28:32.997Z,8.07
2022-12-17T02:31:18.847Z,8.03
2022-12-17T02:34:05.446Z,8.63
2022-12-17T02:36:53.133Z,9.53
2022-12-17T02:39:39.801Z,7.80
2022-12-17T02:42:25.915Z,13.30
2022-12-17T02:45:14.556Z,16.27
2022-12-17T02:48:01.547Z,19.30
2022-12-17T02:50:47.169Z,15.50
2022-12-17T02:53:33.864Z,16.80
2022-12-17T02:56:19.697Z,15.63
2022-12-17T02:59:05.239Z,15.77
2022-12-17T03:01:52.971Z,13.47
2022-12-17T03:04:38.662Z,14.87
2022-12-17T03:07:25.042Z,12.97
2022-12-17T03:10:10.518Z,14.23
2022-12-17T03:13:00.156Z,15.23
2022-12-17T03:15:45.904Z,15.13
2022-12-17T03:18:32.253Z,12.97
2022-12-17T03:21:17.764Z,15.70
2022-12-17T03:24:02.990Z,15.83
2022-12-17T03:26:48.587Z,16.97
2022-12-17T03:29:42.300Z,16.10
2022-12-17T03:32:27.422Z,15.70
2022-12-17T03:35:13.878Z,19.17
2022-12-17T03:37:59.385Z,18.80
2022-12-17T03:40:44.605Z,19.00
2022-12-17T03:43:30.511Z,16.67
2022-12-17T03:46:16.417Z,15.63
2022-12-17T03:49:01.953Z,18.60
2022-12-17T03:51:48.630Z,12.80
2022-12-17T03:54:34.105Z,16.00
2022-12-17T03:57:19.642Z,15.53
2022-12-17T04:00:05.274Z,14.20
2022-12-17T04:02:57.789Z,13.33
2022-12-17T04:05:43.089Z,16.30
2022-12-17T04:08:44.001Z,15.90
2022-12-17T04:11:29.640Z,13.90
2022-12-17T04:14:14.782Z,12.13
2022-12-17T04:17:00.092Z,13.90
2022-12-17T04:19:59.953Z,12.03
2022-12-17T04:22:45.102Z,10.00
2022-12-17T04:25:31.870Z,11.13
2022-12-17T04:28:17.255Z,11.60
2022-12-17T04:31:02.868Z,10.17
2022-12-17T04:34:02.602Z,8.07
2022-12-17T04:36:47.641Z,10.70
2022-12-17T04:39:32.750Z,11.40
2022-12-17T04:42:19.531Z,13.53
2022-12-17T04:45:04.670Z,12.17
2022-12-17T04:47:50.097Z,16.43
2022-12-17T04:50:35.882Z,16.43
2022-12-17T04:53:21.901Z,13.77
2022-12-17T04:56:07.517Z,23.97
2022-12-17T04:58:53.992Z,21.60
2022-12-17T05:01:39.228Z,33.33
2022-12-17T05:04:24.868Z,31.80
2022-12-17T05:07:09.996Z,30.53
2022-12-17T05:09:55.167Z,27.27
2022-12-17T05:12:40.912Z,22.10
2022-12-17T05:15:28.223Z,20.07
2022-12-17T05:18:13.474Z,21.73
2022-12-17T05:20:58.848Z,21.30
2022-12-17T05:23:52.319Z,19.30
2022-12-17T05:26:40.012Z,17.60
2022-12-17T05:29:25.438Z,17.97
2022-12-17T05:32:12.041Z,16.30
2022-12-17T05:34:57.272Z,17.83
2022-12-17T05:37:42.773Z,15.20
2022-12-17T05:40:29.169Z,14.80
2022-12-17T05:43:23.818Z,13.03
2022-12-17T05:46:21.330Z,15.07
2022-12-17T05:49:08.230Z,19.13
2022-12-17T05:51:53.605Z,20.83
2022-12-17T05:54:38.865Z,22.30
2022-12-17T05:57:24.379Z,24.43
2022-12-17T06:00:09.457Z,27.93
2022-12-17T06:02:58.000Z,27.07
2022-12-17T06:05:44.943Z,24.80
2022-12-17T06:08:30.322Z,21.43
2022-12-17T06:11:17.566Z,19.27
2022-12-17T06:14:03.597Z,18.30
2022-12-17T06:16:48.787Z,20.10
2022-12-17T06:19:33.961Z,21.40
2022-12-17T06:22:23.108Z,19.50
2022-12-17T06:25:08.823Z,16.10
2022-12-17T06:27:54.118Z,16.60
2022-12-17T06:30:39.416Z,15.87
2022-12-17T06:33:25.808Z,14.67
2022-12-17T06:36:18.067Z,16.87
2022-12-17T06:39:08.413Z,14.63
2022-12-17T06:42:00.490Z,13.97
2022-12-17T06:44:45.957Z,15.53
2022-12-17T06:47:36.473Z,13.87
2022-12-17T06:50:22.596Z,12.40
2022-12-17T06:53:17.633Z,13.13
2022-12-17T06:56:04.328Z,11.70
2022-12-17T06:58:49.739Z,13.00
2022-12-17T07:01:35.345Z,12.67
2022-12-17T07:04:20.723Z,13.17
2022-12-17T07:07:06.012Z,11.43
2022-12-17T07:09:51.325Z,11.27
2022-12-17T07:12:39.204Z,11.30
2022-12-17T07:15:25.188Z,11.57
2022-12-17T07:18:14.677Z,11.20
2022-12-17T07:21:00.137Z,11.80
2022-12-17T07:23:45.785Z,11.60
2022-12-17T07:26:31.042Z,10.23
2022-12-17T07:29:17.959Z,9.67
2022-12-17T07:32:03.509Z,11.20
2022-12-17T07:34:48.764Z,10.47
2022-12-17T07:37:34.248Z,11.17
2022-12-17T07:40:19.527Z,17.60
2022-12-17T07:43:04.822Z,17.27
2022-12-17T07:45:51.309Z,19.50
2022-12-17T07:48:36.664Z,19.67
2022-12-17T07:51:22.149Z,19.67
2022-12-17T07:54:07.875Z,16.30
2022-12-17T07:56:53.140Z,15.37
2022-12-17T07:59:38.387Z,13.50
2022-12-17T08:02:25.569Z,16.67
2022-12-17T08:05:10.832Z,17.03
2022-12-17T08:07:56.473Z,13.97
2022-12-17T08:10:41.518Z,16.37
2022-12-17T08:13:27.799Z,14.47
2022-12-17T08:16:13.170Z,15.10
2022-12-17T08:19:00.300Z,14.90
2022-12-17T08:21:45.680Z,14.00
2022-12-17T08:24:33.033Z,12.93
2022-12-17T08:27:20.688Z,16.40
2022-12-17T08:30:06.079Z,17.23
2022-12-17T08:32:51.555Z,17.57
2022-12-17T08:35:38.109Z,17.43
2022-12-17T08:38:24.768Z,21.90
2022-12-17T08:41:10.318Z,19.03
2022-12-17T08:43:55.477Z,19.27
2022-12-17T08:46:55.316Z,18.03
2022-12-17T08:49:40.398Z,17.87
2022-12-17T08:52:27.401Z,15.00
2022-12-17T08:55:18.106Z,15.77
2022-12-17T08:58:11.596Z,16.70
2022-12-17T09:00:57.253Z,22.67
2022-12-17T09:03:43.300Z,23.40
2022-12-17T09:06:28.346Z,27.07
2022-12-17T09:09:15.212Z,25.73
2022-12-17T09:12:03.131Z,25.60
2022-12-17T09:14:48.296Z,24.47
2022-12-17T09:17:33.582Z,24.20
2022-12-17T09:20:18.718Z,25.00
2022-12-17T09:23:03.900Z,25.97
2022-12-17T09:25:55.068Z,23.67
2022-12-17T09:28:43.545Z,23.37
2022-12-17T09:31:32.406Z,26.43
2022-12-17T09:34:22.333Z,29.43
2022-12-17T09:37:07.494Z,29.80
2022-12-17T09:39:52.899Z,31.77
2022-12-17T09:42:54.473Z,31.77
2022-12-17T09:45:48.714Z,33.73
2022-12-17T09:48:42.037Z,29.10
2022-12-17T09:51:39.533Z,24.60
2022-12-17T09:54:30.921Z,21.60
2022-12-17T09:57:22.312Z,34.87
2022-12-17T10:00:08.924Z,28.13
2022-12-17T10:02:58.279Z,26.67
2022-12-17T10:05:46.412Z,25.67
2022-12-17T10:08:34.251Z,26.10
2022-12-17T10:11:34.537Z,29.07
2022-12-17T10:14:30.412Z,31.00
2022-12-17T10:17:17.121Z,33.13
2022-12-17T10:20:03.606Z,33.00
2022-12-17T10:22:48.927Z,30.53
2022-12-17T10:25:36.571Z,35.60
2022-12-17T10:28:24.242Z,33.27
2022-12-17T10:31:09.904Z,28.07
2022-12-17T10:33:59.039Z,26.70
2022-12-17T10:36:42.537Z,26.63
2022-12-17T10:39:35.412Z,30.37
2022-12-17T10:42:20.643Z,32.77
2022-12-17T10:45:05.830Z,33.50
2022-12-17T10:47:52.402Z,32.90
2022-12-17T10:50:41.402Z,30.40
2022-12-17T10:53:41.998Z,28.53
2022-12-17T10:56:40.188Z,27.80
2022-12-17T10:59:31.085Z,30.30
2022-12-17T11:02:29.189Z,30.10
2022-12-17T11:05:17.068Z,29.53
2022-12-17T11:08:03.916Z,29.27
2022-12-17T11:10:53.480Z,32.23
2022-12-17T11:13:47.617Z,31.70
2022-12-17T11:16:40.830Z,30.47
2022-12-17T11:19:51.002Z,32.03
2022-12-17T11:22:47.788Z,32.40
2022-12-17T11:25:47.891Z,30.53
2022-12-17T11:28:39.311Z,29.43
2022-12-17T11:31:42.348Z,27.67
2022-12-17T11:34:49.452Z,28.47
2022-12-17T11:37:39.472Z,28.03
2022-12-17T11:40:40.539Z,25.50
2022-12-17T11:43:39.065Z,23.27
2022-12-17T11:46:33.529Z,20.13
2022-12-17T11:49:28.082Z,26.23
2022-12-17T11:52:20.557Z,26.27
2022-12-17T11:55:13.240Z,26.80
2022-12-17T11:58:07.651Z,26.97
2022-12-17T12:01:01.204Z,28.77
2022-12-17T12:03:56.135Z,24.97
2022-12-17T12:06:51.950Z,23.53
2022-12-17T12:09:44.190Z,24.97
2022-12-17T12:12:39.505Z,27.57
2022-12-17T12:15:45.423Z,29.87
2022-12-17T12:18:42.946Z,37.87
2022-12-17T12:21:43.241Z,35.23
2022-12-17T12:24:40.467Z,30.30
2022-12-17T12:27:42.228Z,33.57
2022-12-17T12:30:33.482Z,34.40
2022-12-17T12:33:37.646Z,35.97
2022-12-17T12:36:28.993Z,38.13
2022-12-17T12:39:16.208Z,36.97
2022-12-17T12:42:09.398Z,32.07
2022-12-17T12:45:03.745Z,33.10
2022-12-17T12:48:01.041Z,31.40
2022-12-17T12:50:55.222Z,30.57
2022-12-17T12:53:44.013Z,36.33
2022-12-17T12:56:47.307Z,33.27
2022-12-17T12:59:44.548Z,34.73
2022-12-17T13:02:45.682Z,35.03
2022-12-17T13:05:35.504Z,36.67
2022-12-17T13:08:06.601Z,37.87
2022-12-17T13:10:37.972Z,33.20
2022-12-17T13:13:14.364Z,37.40
2022-12-17T13:15:47.810Z,32.20
2022-12-17T13:18:23.589Z,33.50
2022-12-17T13:21:01.035Z,28.30
2022-12-17T13:23:34.808Z,26.93
2022-12-17T13:26:19.247Z,28.97
2022-12-17T13:28:59.930Z,33.63
2022-12-17T13:31:29.246Z,40.83
2022-12-17T13:34:06.923Z,40.10
2022-12-17T13:36:46.609Z,41.07
2022-12-17T13:39:27.492Z,34.80
2022-12-17T13:41:56.626Z,37.10
2022-12-17T13:44:26.686Z,39.00
2022-12-17T13:46:55.319Z,38.97
2022-12-17T13:49:25.529Z,39.63
2022-12-17T13:52:11.571Z,41.30
2022-12-17T13:54:39.877Z,36.10
2022-12-17T13:57:10.529Z,38.47
2022-12-17T13:59:39.261Z,36.43
2022-12-17T14:02:07.293Z,33.10
2022-12-17T14:04:35.169Z,32.53
2022-12-17T14:07:06.484Z,42.03
2022-12-17T14:09:36.760Z,43.13
2022-12-17T14:12:25.160Z,36.73
2022-12-17T14:14:57.482Z,41.33
2022-12-17T14:17:27.498Z,35.73
2022-12-17T14:20:00.149Z,37.60
2022-12-17T14:22:34.641Z,31.43
2022-12-17T14:25:02.825Z,39.83
2022-12-17T14:27:34.189Z,45.50
2022-12-17T14:30:20.519Z,42.53
2022-12-17T14:32:48.645Z,36.23
2022-12-17T14:35:28.208Z,41.67
2022-12-17T14:37:56.644Z,39.00
2022-12-17T14:40:26.323Z,41.77
2022-12-17T14:42:59.439Z,43.47
2022-12-17T14:45:30.393Z,46.53
2022-12-17T14:47:59.852Z,45.57
2022-12-17T14:50:31.992Z,38.60
2022-12-17T14:53:01.829Z,39.33
2022-12-17T14:55:33.644Z,45.93
2022-12-17T14:58:16.291Z,42.37
2022-12-17T15:00:48.548Z,41.93
2022-12-17T15:03:21.001Z,41.20
2022-12-17T15:05:53.984Z,36.10
2022-12-17T15:08:22.810Z,33.77
2022-12-17T15:10:50.701Z,34.60
2022-12-17T15:13:18.407Z,38.93
2022-12-17T15:15:47.633Z,38.50
2022-12-17T15:18:15.448Z,40.80
2022-12-17T15:20:43.688Z,44.27
2022-12-17T15:23:16.904Z,48.10
2022-12-17T15:25:47.088Z,49.47
2022-12-17T15:28:15.429Z,41.37
2022-12-17T15:30:43.255Z,41.53
2022-12-17T15:33:13.095Z,45.67
2022-12-17T15:35:41.511Z,44.30
2022-12-17T15:38:10.273Z,46.87
2022-12-17T15:40:38.402Z,46.70
2022-12-17T15:43:11.306Z,43.30
2022-12-17T15:45:40.150Z,42.97
2022-12-17T15:48:09.525Z,47.10
2022-12-17T15:50:38.935Z,44.10
2022-12-17T15:53:06.809Z,48.87
2022-12-17T15:55:34.649Z,44.20
2022-12-17T15:58:02.423Z,48.03
2022-12-17T16:00:30.371Z,48.43
2022-12-17T16:02:58.375Z,46.70
2022-12-17T16:05:26.267Z,44.07
2022-12-17T16:07:58.873Z,44.17
2022-12-17T16:10:26.949Z,47.13
2022-12-17T16:12:54.635Z,44.50
2022-12-17T16:15:22.349Z,45.07
2022-12-17T16:17:50.182Z,42.87
2022-12-17T16:20:18.288Z,38.43
2022-12-17T16:22:46.171Z,38.87
2022-12-17T16:25:15.305Z,42.70
2022-12-17T16:27:43.211Z,42.00
2022-12-17T16:30:12.153Z,40.43
2022-12-17T16:32:40.160Z,35.93
2022-12-17T16:35:08.407Z,43.23
2022-12-17T16:37:36.139Z,39.33
2022-12-17T16:40:04.362Z,41.50
2022-12-17T16:42:33.411Z,43.57
2022-12-17T16:45:01.241Z,41.57
2022-12-17T16:47:29.332Z,37.33
2022-12-17T16:49:57.212Z,41.47
2022-12-17T16:52:25.033Z,42.77
2022-12-17T16:54:52.803Z,44.47
2022-12-17T16:57:20.594Z,43.00
2022-12-17T16:59:49.856Z,42.47
2022-12-17T17:02:17.734Z,41.43
2022-12-17T17:04:45.682Z,47.07
2022-12-17T17:07:13.401Z,39.67
2022-12-17T17:09:41.373Z,39.40
2022-12-17T17:12:09.233Z,43.20
2022-12-17T17:14:36.947Z,45.90
2022-12-17T17:17:05.993Z,44.87
2022-12-17T17:19:33.728Z,52.07
2022-12-17T17:22:01.445Z,47.63
2022-12-17T17:24:29.308Z,43.73
2022-12-17T17:26:57.164Z,46.83
2022-12-17T17:29:25.483Z,41.47
2022-12-17T17:34:42.337Z,52.47
2022-12-17T17:37:10.460Z,50.97
2022-12-17T17:39:38.208Z,48.10
2022-12-17T17:42:06.358Z,42.47
2022-12-17T17:44:34.341Z,43.90
2022-12-17T17:47:02.233Z,49.80
2022-12-17T17:49:30.254Z,46.27
2022-12-17T17:52:09.610Z,46.40
2022-12-17T17:54:39.358Z,49.83
2022-12-17T17:57:07.175Z,53.70
2022-12-17T17:59:34.906Z,50.33
2022-12-17T18:02:03.386Z,55.53
2022-12-17T18:04:31.993Z,51.97
2022-12-17T18:07:25.173Z,48.17
2022-12-17T18:09:48.853Z,44.10
2022-12-17T18:12:34.323Z,40.83
2022-12-17T18:15:18.638Z,41.37
2022-12-17T18:17:48.078Z,41.23
2022-12-17T18:20:16.582Z,33.13
2022-12-17T18:22:46.946Z,40.30
2022-12-17T18:25:15.309Z,38.40
2022-12-17T18:27:44.213Z,36.17
2022-12-17T18:30:12.646Z,36.53
2022-12-17T18:32:40.398Z,38.37
2022-12-17T18:35:09.210Z,39.23
2022-12-17T18:37:36.971Z,38.87
2022-12-17T18:40:07.477Z,38.33
2022-12-17T18:42:53.129Z,35.73
2022-12-17T18:45:20.865Z,32.47
2022-12-17T18:47:49.002Z,43.63
2022-12-17T18:50:16.990Z,43.47
2022-12-17T18:52:44.810Z,38.73
2022-12-17T18:55:14.188Z,41.07
2022-12-17T18:57:41.989Z,40.33
2022-12-17T19:00:11.389Z,39.60
2022-12-17T19:02:39.670Z,36.03
2022-12-17T19:05:08.032Z,35.80
2022-12-17T19:07:35.732Z,72.27
2022-12-17T19:10:03.481Z,51.63
2022-12-17T19:12:33.127Z,55.07
2022-12-17T19:15:00.869Z,41.53
2022-12-17T19:17:28.842Z,45.20
2022-12-17T19:19:56.929Z,52.60
2022-12-17T19:22:24.714Z,55.33
2022-12-17T19:24:52.502Z,48.93
2022-12-17T19:27:20.389Z,51.73
2022-12-17T19:29:50.176Z,48.77
2022-12-17T19:32:18.446Z,48.50
2022-12-17T19:34:46.231Z,49.50
2022-12-17T19:37:14.001Z,48.57
2022-12-17T19:39:41.742Z,53.73
2022-12-17T19:42:24.535Z,45.57
2022-12-17T19:44:55.037Z,43.03
2022-12-17T19:47:23.755Z,40.70
2022-12-17T19:49:51.585Z,43.13
2022-12-17T19:52:19.328Z,41.73
2022-12-17T19:54:47.166Z,39.37
2022-12-17T19:57:14.901Z,41.97
2022-12-17T19:59:42.731Z,43.07
2022-12-17T20:02:12.032Z,43.03
2022-12-17T20:04:39.916Z,45.67
2022-12-17T20:07:07.659Z,50.43
2022-12-17T20:09:35.451Z,42.23
2022-12-17T20:12:03.165Z,47.67
2022-12-17T20:14:31.568Z,42.10
2022-12-17T20:17:01.084Z,38.37
2022-12-17T20:19:33.191Z,40.00
2022-12-17T20:22:02.811Z,39.33
2022-12-17T20:24:31.764Z,39.67
2022-12-17T20:27:00.698Z,39.40
2022-12-17T20:29:28.490Z,40.13
2022-12-17T20:31:56.957Z,42.80
2022-12-17T20:34:27.748Z,43.77
2022-12-17T20:36:57.153Z,37.53
2022-12-17T20:39:28.277Z,35.43
2022-12-17T20:41:57.528Z,38.50
2022-12-17T20:44:25.587Z,39.83
2022-12-17T20:46:53.556Z,38.67
2022-12-17T20:49:21.529Z,44.03
2022-12-17T20:51:49.296Z,39.37
2022-12-17T20:54:18.508Z,36.67
2022-12-17T20:56:46.228Z,33.43
2022-12-17T20:59:17.365Z,34.47
2022-12-17T21:01:50.261Z,31.73
2022-12-17T21:04:20.777Z,35.80
2022-12-17T21:06:49.148Z,34.17
2022-12-17T21:09:20.860Z,37.83
2022-12-17T21:11:48.893Z,37.37
2022-12-17T21:14:18.661Z,36.77
2022-12-17T21:16:47.208Z,35.43
2022-12-17T21:19:17.754Z,36.23
2022-12-17T21:21:46.162Z,38.63
2022-12-17T21:24:14.096Z,42.97
2022-12-17T21:26:44.885Z,37.37
2022-12-17T21:29:13.005Z,38.47
2022-12-17T21:31:43.021Z,36.83
2022-12-17T21:34:12.853Z,35.10
2022-12-17T21:36:41.114Z,34.57
2022-12-17T21:39:10.412Z,40.67
2022-12-17T21:41:44.257Z,37.63
2022-12-17T21:44:15.841Z,38.17
2022-12-17T21:46:49.850Z,36.07
2022-12-17T21:49:18.631Z,36.73
2022-12-17T21:51:46.771Z,33.33
2022-12-17T21:54:19.271Z,32.97
2022-12-17T21:56:48.090Z,33.83
2022-12-17T21:59:17.401Z,34.23
2022-12-17T22:01:45.372Z,34.03
2022-12-17T22:04:13.374Z,32.83
2022-12-17T22:06:54.717Z,32.23
2022-12-17T22:09:40.153Z,37.57
2022-12-17T22:12:34.160Z,38.73
2022-12-17T22:15:03.319Z,35.97
2022-12-17T22:17:31.549Z,37.57
2022-12-17T22:19:59.301Z,34.57
2022-12-17T22:22:27.051Z,33.93
2022-12-17T22:24:54.893Z,30.63
2022-12-17T22:27:22.757Z,31.17
2022-12-17T22:30:08.043Z,33.27
2022-12-17T22:32:54.715Z,37.03
2022-12-17T22:35:23.637Z,37.60
2022-12-17T22:40:47.375Z,34.33
2022-12-17T22:44:34.404Z,33.20
2022-12-17T22:44:42.467Z,33.83
2022-12-17T22:46:40.375Z,30.83
2022-12-17T22:49:09.702Z,32.43
2022-12-17T22:51:40.412Z,33.80
2022-12-17T22:54:10.274Z,33.03
2022-12-17T22:57:33.115Z,29.10
2022-12-17T22:59:28.426Z,30.33
2022-12-17T23:01:56.673Z,33.83
2022-12-17T23:04:25.947Z,32.33
2022-12-17T23:06:53.859Z,34.83
2022-12-17T23:09:22.079Z,32.37
2022-12-17T23:11:50.317Z,36.23
2022-12-17T23:14:18.612Z,31.83
2022-12-17T23:16:46.612Z,36.07
2022-12-17T23:19:14.781Z,33.00
2022-12-17T23:21:44.199Z,29.77
2022-12-17T23:24:11.945Z,30.40
2022-12-17T23:26:40.645Z,30.97
2022-12-17T23:29:19.183Z,29.37
2022-12-17T23:31:47.561Z,31.53
2022-12-17T23:34:15.420Z,29.80
2022-12-17T23:36:44.584Z,29.83
2022-12-17T23:39:12.475Z,29.70
2022-12-17T23:41:40.390Z,28.73
2022-12-17T23:44:08.249Z,34.63
2022-12-17T23:46:36.190Z,31.43
2022-12-17T23:49:05.978Z,30.23
2022-12-17T23:51:34.379Z,31.40
2022-12-17T23:54:03.551Z,31.00
2022-12-17T23:56:31.509Z,31.50
2022-12-17T23:59:01.616Z,33.47
